sensor_id;sensor_type;location;lat;lon;timestamp;P1;durP1;ratioP1;P2;durP2;ratioP2
20751;SDS011;10536;51.582;5.016;2022-10-16T00:04:31;11.90;;;4.30;;
20751;SDS011;10536;51.582;5.016;2022-10-16T00:09:31;7.03;;;4.00;;
20751;SDS011;10536;51.582;5.016;2022-10-16T00:14:31;5.57;;;4.00;;
20751;SDS011;10536;51.582;5.016;2022-10-16T00:19:32;8.18;;;4.55;;
20751;SDS011;10536;51.582;5.016;2022-10-16T00:24:32;8.55;;;4.20;;
20751;SDS011;10536;51.582;5.016;2022-10-16T00:29:33;6.07;;;4.10;;
20751;SDS011;10536;51.582;5.016;2022-10-16T00:34:33;7.13;;;3.90;;
20751;SDS011;10536;51.582;5.016;2022-10-16T00:39:34;5.10;;;4.30;;
20751;SDS011;10536;51.582;5.016;2022-10-16T00:44:46;5.97;;;4.78;;
20751;SDS011;10536;51.582;5.016;2022-10-16T00:49:53;8.63;;;4.43;;
20751;SDS011;10536;51.582;5.016;2022-10-16T00:54:58;9.43;;;4.30;;
20751;SDS011;10536;51.582;5.016;2022-10-16T01:00:00;4.35;;;3.95;;
20751;SDS011;10536;51.582;5.016;2022-10-16T01:05:02;4.20;;;3.80;;
20751;SDS011;10536;51.582;5.016;2022-10-16T01:15:41;4.77;;;3.50;;
20751;SDS011;10536;51.582;5.016;2022-10-16T01:20:42;3.38;;;3.08;;
20751;SDS011;10536;51.582;5.016;2022-10-16T01:31:06;4.43;;;2.50;;
20751;SDS011;10536;51.582;5.016;2022-10-16T01:36:15;4.45;;;2.13;;
20751;SDS011;10536;51.582;5.016;2022-10-16T01:41:22;4.85;;;2.42;;
20751;SDS011;10536;51.582;5.016;2022-10-16T01:46:30;2.42;;;2.20;;
20751;SDS011;10536;51.582;5.016;2022-10-16T01:51:33;3.40;;;2.08;;
20751;SDS011;10536;51.582;5.016;2022-10-16T01:56:35;5.35;;;3.42;;
20751;SDS011;10536;51.582;5.016;2022-10-16T02:01:38;5.00;;;2.63;;
20751;SDS011;10536;51.582;5.016;2022-10-16T02:06:42;8.20;;;2.45;;
20751;SDS011;10536;51.582;5.016;2022-10-16T02:11:43;4.40;;;2.53;;
20751;SDS011;10536;51.582;5.016;2022-10-16T02:16:45;4.45;;;2.50;;
20751;SDS011;10536;51.582;5.016;2022-10-16T02:21:56;2.63;;;2.08;;
20751;SDS011;10536;51.582;5.016;2022-10-16T02:32:38;6.07;;;2.30;;
20751;SDS011;10536;51.582;5.016;2022-10-16T02:37:42;5.00;;;2.05;;
20751;SDS011;10536;51.582;5.016;2022-10-16T02:42:43;7.18;;;2.15;;
20751;SDS011;10536;51.582;5.016;2022-10-16T02:47:43;5.20;;;2.10;;
20751;SDS011;10536;51.582;5.016;2022-10-16T02:52:44;2.47;;;1.95;;
20751;SDS011;10536;51.582;5.016;2022-10-16T02:57:44;5.13;;;1.97;;
20751;SDS011;10536;51.582;5.016;2022-10-16T03:02:45;5.07;;;1.90;;
20751;SDS011;10536;51.582;5.016;2022-10-16T03:07:46;2.80;;;2.47;;
20751;SDS011;10536;51.582;5.016;2022-10-16T03:12:47;2.70;;;2.28;;
20751;SDS011;10536;51.582;5.016;2022-10-16T03:17:47;2.50;;;2.30;;
20751;SDS011;10536;51.582;5.016;2022-10-16T03:22:48;2.78;;;2.47;;
20751;SDS011;10536;51.582;5.016;2022-10-16T03:27:48;5.65;;;2.47;;
20751;SDS011;10536;51.582;5.016;2022-10-16T03:32:49;3.40;;;3.00;;
20751;SDS011;10536;51.582;5.016;2022-10-16T03:37:53;14.95;;;3.15;;
20751;SDS011;10536;51.582;5.016;2022-10-16T03:42:54;3.55;;;3.00;;
20751;SDS011;10536;51.582;5.016;2022-10-16T03:47:57;5.18;;;3.58;;
20751;SDS011;10536;51.582;5.016;2022-10-16T03:52:58;7.50;;;2.60;;
20751;SDS011;10536;51.582;5.016;2022-10-16T03:57:58;7.00;;;2.87;;
20751;SDS011;10536;51.582;5.016;2022-10-16T04:02:58;4.07;;;2.53;;
20751;SDS011;10536;51.582;5.016;2022-10-16T04:07:59;3.40;;;2.93;;
20751;SDS011;10536;51.582;5.016;2022-10-16T04:12:59;2.83;;;2.63;;
20751;SDS011;10536;51.582;5.016;2022-10-16T04:18:00;10.67;;;3.13;;
20751;SDS011;10536;51.582;5.016;2022-10-16T04:23:00;4.53;;;2.60;;
20751;SDS011;10536;51.582;5.016;2022-10-16T04:28:01;5.45;;;2.63;;
20751;SDS011;10536;51.582;5.016;2022-10-16T04:33:01;4.43;;;2.70;;
20751;SDS011;10536;51.582;5.016;2022-10-16T04:38:01;4.43;;;3.10;;
20751;SDS011;10536;51.582;5.016;2022-10-16T04:43:03;3.55;;;3.08;;
20751;SDS011;10536;51.582;5.016;2022-10-16T04:48:04;6.72;;;2.92;;
20751;SDS011;10536;51.582;5.016;2022-10-16T04:53:05;7.53;;;3.33;;
20751;SDS011;10536;51.582;5.016;2022-10-16T04:58:05;3.33;;;2.97;;
20751;SDS011;10536;51.582;5.016;2022-10-16T05:03:06;4.55;;;3.00;;
20751;SDS011;10536;51.582;5.016;2022-10-16T05:08:08;10.65;;;3.30;;
20751;SDS011;10536;51.582;5.016;2022-10-16T05:13:09;9.73;;;2.95;;
20751;SDS011;10536;51.582;5.016;2022-10-16T05:18:09;8.07;;;3.00;;
20751;SDS011;10536;51.582;5.016;2022-10-16T05:23:10;6.03;;;2.80;;
20751;SDS011;10536;51.582;5.016;2022-10-16T05:28:11;6.18;;;2.95;;
20751;SDS011;10536;51.582;5.016;2022-10-16T05:33:12;6.63;;;3.00;;
20751;SDS011;10536;51.582;5.016;2022-10-16T05:38:13;3.22;;;2.83;;
20751;SDS011;10536;51.582;5.016;2022-10-16T05:43:13;6.05;;;2.97;;
20751;SDS011;10536;51.582;5.016;2022-10-16T05:48:14;4.37;;;2.83;;
20751;SDS011;10536;51.582;5.016;2022-10-16T05:53:14;7.57;;;3.70;;
20751;SDS011;10536;51.582;5.016;2022-10-16T05:58:14;5.70;;;3.33;;
20751;SDS011;10536;51.582;5.016;2022-10-16T06:03:15;10.38;;;3.92;;
20751;SDS011;10536;51.582;5.016;2022-10-16T06:08:15;10.60;;;3.43;;
20751;SDS011;10536;51.582;5.016;2022-10-16T06:13:17;9.18;;;3.70;;
20751;SDS011;10536;51.582;5.016;2022-10-16T06:18:17;6.88;;;3.53;;
20751;SDS011;10536;51.582;5.016;2022-10-16T06:23:17;7.07;;;3.47;;
20751;SDS011;10536;51.582;5.016;2022-10-16T06:28:18;7.05;;;3.97;;
20751;SDS011;10536;51.582;5.016;2022-10-16T06:33:18;5.13;;;3.30;;
20751;SDS011;10536;51.582;5.016;2022-10-16T06:38:19;5.78;;;3.45;;
20751;SDS011;10536;51.582;5.016;2022-10-16T06:43:19;8.30;;;3.55;;
20751;SDS011;10536;51.582;5.016;2022-10-16T06:48:20;10.90;;;3.63;;
20751;SDS011;10536;51.582;5.016;2022-10-16T06:53:20;6.15;;;3.47;;
20751;SDS011;10536;51.582;5.016;2022-10-16T06:58:21;10.20;;;3.27;;
20751;SDS011;10536;51.582;5.016;2022-10-16T07:03:22;7.80;;;3.58;;
20751;SDS011;10536;51.582;5.016;2022-10-16T07:08:22;5.03;;;3.22;;
20751;SDS011;10536;51.582;5.016;2022-10-16T07:13:23;6.00;;;3.67;;
20751;SDS011;10536;51.582;5.016;2022-10-16T07:18:23;10.32;;;3.75;;
20751;SDS011;10536;51.582;5.016;2022-10-16T07:23:26;5.75;;;3.60;;
20751;SDS011;10536;51.582;5.016;2022-10-16T07:28:27;6.27;;;3.70;;
20751;SDS011;10536;51.582;5.016;2022-10-16T07:33:28;5.30;;;3.35;;
20751;SDS011;10536;51.582;5.016;2022-10-16T07:38:29;5.57;;;3.33;;
20751;SDS011;10536;51.582;5.016;2022-10-16T07:43:29;5.70;;;3.60;;
20751;SDS011;10536;51.582;5.016;2022-10-16T07:48:31;7.75;;;3.92;;
20751;SDS011;10536;51.582;5.016;2022-10-16T07:53:32;7.38;;;3.30;;
20751;SDS011;10536;51.582;5.016;2022-10-16T07:58:33;8.98;;;3.38;;
20751;SDS011;10536;51.582;5.016;2022-10-16T08:03:36;9.10;;;3.30;;
20751;SDS011;10536;51.582;5.016;2022-10-16T08:08:37;6.63;;;2.92;;
20751;SDS011;10536;51.582;5.016;2022-10-16T08:13:38;9.52;;;3.17;;
20751;SDS011;10536;51.582;5.016;2022-10-16T08:18:39;6.85;;;2.83;;
20751;SDS011;10536;51.582;5.016;2022-10-16T08:23:40;9.63;;;3.47;;
20751;SDS011;10536;51.582;5.016;2022-10-16T08:28:41;6.72;;;3.10;;
20751;SDS011;10536;51.582;5.016;2022-10-16T08:33:42;5.80;;;3.10;;
20751;SDS011;10536;51.582;5.016;2022-10-16T08:38:47;10.05;;;3.05;;
20751;SDS011;10536;51.582;5.016;2022-10-16T08:49:16;7.03;;;3.00;;
20751;SDS011;10536;51.582;5.016;2022-10-16T08:54:22;13.13;;;2.95;;
20751;SDS011;10536;51.582;5.016;2022-10-16T08:59:30;6.20;;;2.35;;
20751;SDS011;10536;51.582;5.016;2022-10-16T09:10:02;13.35;;;2.78;;
20751;SDS011;10536;51.582;5.016;2022-10-16T09:26:02;5.32;;;2.53;;
20751;SDS011;10536;51.582;5.016;2022-10-16T09:31:03;13.25;;;2.22;;
20751;SDS011;10536;51.582;5.016;2022-10-16T09:36:04;9.13;;;2.17;;
20751;SDS011;10536;51.582;5.016;2022-10-16T09:41:19;7.05;;;2.08;;
20751;SDS011;10536;51.582;5.016;2022-10-16T09:46:34;11.85;;;2.42;;
20751;SDS011;10536;51.582;5.016;2022-10-16T09:51:37;11.07;;;2.13;;
20751;SDS011;10536;51.582;5.016;2022-10-16T09:56:38;7.97;;;2.00;;
20751;SDS011;10536;51.582;5.016;2022-10-16T10:01:46;15.10;;;2.67;;
20751;SDS011;10536;51.582;5.016;2022-10-16T10:06:49;10.32;;;2.30;;
20751;SDS011;10536;51.582;5.016;2022-10-16T10:11:53;8.73;;;2.30;;
20751;SDS011;10536;51.582;5.016;2022-10-16T10:27:31;17.63;;;2.05;;
20751;SDS011;10536;51.582;5.016;2022-10-16T10:54:39;25.77;;;3.30;;
20751;SDS011;10536;51.582;5.016;2022-10-16T11:05:42;21.98;;;2.67;;
20751;SDS011;10536;51.582;5.016;2022-10-16T11:15:55;16.88;;;2.40;;
20751;SDS011;10536;51.582;5.016;2022-10-16T11:21:00;18.83;;;2.38;;
20751;SDS011;10536;51.582;5.016;2022-10-16T11:26:06;17.52;;;2.70;;
20751;SDS011;10536;51.582;5.016;2022-10-16T11:31:15;18.08;;;2.05;;
20751;SDS011;10536;51.582;5.016;2022-10-16T11:36:33;14.45;;;1.88;;
20751;SDS011;10536;51.582;5.016;2022-10-16T11:41:47;22.25;;;2.80;;
20751;SDS011;10536;51.582;5.016;2022-10-16T11:47:09;13.40;;;2.15;;
20751;SDS011;10536;51.582;5.016;2022-10-16T11:57:29;13.38;;;2.85;;
20751;SDS011;10536;51.582;5.016;2022-10-16T12:02:40;14.63;;;2.22;;
20751;SDS011;10536;51.582;5.016;2022-10-16T12:07:54;16.80;;;1.85;;
20751;SDS011;10536;51.582;5.016;2022-10-16T12:13:26;15.48;;;2.33;;
20751;SDS011;10536;51.582;5.016;2022-10-16T12:18:28;10.10;;;2.33;;
20751;SDS011;10536;51.582;5.016;2022-10-16T12:23:28;23.02;;;4.30;;
20751;SDS011;10536;51.582;5.016;2022-10-16T12:28:29;19.90;;;3.22;;
20751;SDS011;10536;51.582;5.016;2022-10-16T12:34:18;16.30;;;2.10;;
20751;SDS011;10536;51.582;5.016;2022-10-16T12:39:01;28.08;;;3.17;;
20751;SDS011;10536;51.582;5.016;2022-10-16T12:44:02;14.88;;;2.50;;
20751;SDS011;10536;51.582;5.016;2022-10-16T13:10:19;15.30;;;1.98;;
20751;SDS011;10536;51.582;5.016;2022-10-16T13:15:32;8.77;;;2.05;;
20751;SDS011;10536;51.582;5.016;2022-10-16T13:26:26;13.35;;;2.10;;
20751;SDS011;10536;51.582;5.016;2022-10-16T13:31:37;10.95;;;2.47;;
20751;SDS011;10536;51.582;5.016;2022-10-16T13:36:45;10.50;;;2.17;;
20751;SDS011;10536;51.582;5.016;2022-10-16T13:42:02;23.83;;;2.17;;
20751;SDS011;10536;51.582;5.016;2022-10-16T13:47:05;8.47;;;1.60;;
20751;SDS011;10536;51.582;5.016;2022-10-16T13:52:15;8.40;;;1.35;;
20751;SDS011;10536;51.582;5.016;2022-10-16T13:57:18;9.30;;;1.65;;
20751;SDS011;10536;51.582;5.016;2022-10-16T14:02:31;8.18;;;1.40;;
20751;SDS011;10536;51.582;5.016;2022-10-16T14:07:35;11.55;;;1.58;;
20751;SDS011;10536;51.582;5.016;2022-10-16T14:12:37;8.55;;;1.73;;
20751;SDS011;10536;51.582;5.016;2022-10-16T14:17:37;8.75;;;2.28;;
20751;SDS011;10536;51.582;5.016;2022-10-16T14:22:44;10.25;;;1.38;;
20751;SDS011;10536;51.582;5.016;2022-10-16T14:27:56;10.40;;;2.22;;
20751;SDS011;10536;51.582;5.016;2022-10-16T14:33:00;5.63;;;1.40;;
20751;SDS011;10536;51.582;5.016;2022-10-16T14:38:06;6.07;;;2.30;;
20751;SDS011;10536;51.582;5.016;2022-10-16T14:43:21;6.55;;;1.75;;
20751;SDS011;10536;51.582;5.016;2022-10-16T14:48:24;5.57;;;1.63;;
20751;SDS011;10536;51.582;5.016;2022-10-16T14:53:24;9.65;;;1.67;;
20751;SDS011;10536;51.582;5.016;2022-10-16T14:58:25;4.97;;;1.27;;
20751;SDS011;10536;51.582;5.016;2022-10-16T15:03:26;7.38;;;1.40;;
20751;SDS011;10536;51.582;5.016;2022-10-16T15:08:26;6.55;;;1.30;;
20751;SDS011;10536;51.582;5.016;2022-10-16T15:13:27;3.17;;;0.97;;
20751;SDS011;10536;51.582;5.016;2022-10-16T15:18:27;5.45;;;1.25;;
20751;SDS011;10536;51.582;5.016;2022-10-16T15:23:28;10.40;;;1.45;;
20751;SDS011;10536;51.582;5.016;2022-10-16T15:28:28;4.30;;;1.10;;
20751;SDS011;10536;51.582;5.016;2022-10-16T15:33:29;3.13;;;1.00;;
20751;SDS011;10536;51.582;5.016;2022-10-16T15:38:32;4.75;;;1.30;;
20751;SDS011;10536;51.582;5.016;2022-10-16T15:43:33;5.97;;;1.30;;
20751;SDS011;10536;51.582;5.016;2022-10-16T15:48:33;6.30;;;1.30;;
20751;SDS011;10536;51.582;5.016;2022-10-16T15:53:34;3.60;;;1.30;;
20751;SDS011;10536;51.582;5.016;2022-10-16T15:58:35;8.38;;;1.30;;
20751;SDS011;10536;51.582;5.016;2022-10-16T16:03:36;6.80;;;1.90;;
20751;SDS011;10536;51.582;5.016;2022-10-16T16:13:40;59.87;;;17.17;;
20751;SDS011;10536;51.582;5.016;2022-10-16T16:18:41;24.92;;;7.30;;
20751;SDS011;10536;51.582;5.016;2022-10-16T16:23:42;14.57;;;3.78;;
20751;SDS011;10536;51.582;5.016;2022-10-16T16:28:43;6.43;;;2.43;;
20751;SDS011;10536;51.582;5.016;2022-10-16T16:33:44;11.07;;;2.35;;
20751;SDS011;10536;51.582;5.016;2022-10-16T16:38:45;10.70;;;2.95;;
20751;SDS011;10536;51.582;5.016;2022-10-16T16:43:46;6.95;;;3.85;;
20751;SDS011;10536;51.582;5.016;2022-10-16T16:48:47;7.20;;;4.38;;
20751;SDS011;10536;51.582;5.016;2022-10-16T16:53:53;9.75;;;4.95;;
20751;SDS011;10536;51.582;5.016;2022-10-16T16:58:56;11.18;;;5.47;;
20751;SDS011;10536;51.582;5.016;2022-10-16T17:03:57;7.47;;;4.63;;
20751;SDS011;10536;51.582;5.016;2022-10-16T17:09:00;10.23;;;4.18;;
20751;SDS011;10536;51.582;5.016;2022-10-16T17:14:02;17.63;;;5.10;;
20751;SDS011;10536;51.582;5.016;2022-10-16T17:19:06;9.10;;;2.92;;
20751;SDS011;10536;51.582;5.016;2022-10-16T17:24:10;7.32;;;2.90;;
20751;SDS011;10536;51.582;5.016;2022-10-16T17:29:11;5.43;;;2.67;;
20751;SDS011;10536;51.582;5.016;2022-10-16T17:34:12;10.75;;;2.75;;
20751;SDS011;10536;51.582;5.016;2022-10-16T17:39:13;12.02;;;3.97;;
20751;SDS011;10536;51.582;5.016;2022-10-16T17:44:19;13.40;;;4.00;;
20751;SDS011;10536;51.582;5.016;2022-10-16T17:49:20;11.45;;;3.97;;
20751;SDS011;10536;51.582;5.016;2022-10-16T17:54:20;12.75;;;5.45;;
20751;SDS011;10536;51.582;5.016;2022-10-16T17:59:21;11.48;;;5.10;;
20751;SDS011;10536;51.582;5.016;2022-10-16T18:04:22;10.63;;;4.88;;
20751;SDS011;10536;51.582;5.016;2022-10-16T18:09:22;7.13;;;3.55;;
20751;SDS011;10536;51.582;5.016;2022-10-16T18:14:23;5.60;;;3.45;;
20751;SDS011;10536;51.582;5.016;2022-10-16T18:19:24;7.93;;;3.70;;
20751;SDS011;10536;51.582;5.016;2022-10-16T18:24:25;12.05;;;4.50;;
20751;SDS011;10536;51.582;5.016;2022-10-16T18:29:27;8.73;;;4.93;;
20751;SDS011;10536;51.582;5.016;2022-10-16T18:34:27;13.73;;;5.70;;
20751;SDS011;10536;51.582;5.016;2022-10-16T18:39:28;14.67;;;5.43;;
20751;SDS011;10536;51.582;5.016;2022-10-16T18:44:28;18.23;;;5.95;;
20751;SDS011;10536;51.582;5.016;2022-10-16T18:49:30;9.57;;;3.85;;
20751;SDS011;10536;51.582;5.016;2022-10-16T18:54:31;7.65;;;2.97;;
20751;SDS011;10536;51.582;5.016;2022-10-16T18:59:31;6.22;;;3.75;;
20751;SDS011;10536;51.582;5.016;2022-10-16T19:04:31;6.60;;;3.13;;
20751;SDS011;10536;51.582;5.016;2022-10-16T19:09:32;10.77;;;3.67;;
20751;SDS011;10536;51.582;5.016;2022-10-16T19:14:32;9.43;;;3.42;;
20751;SDS011;10536;51.582;5.016;2022-10-16T19:19:33;5.72;;;3.50;;
20751;SDS011;10536;51.582;5.016;2022-10-16T19:24:34;8.07;;;3.33;;
20751;SDS011;10536;51.582;5.016;2022-10-16T19:29:34;4.07;;;3.58;;
20751;SDS011;10536;51.582;5.016;2022-10-16T19:34:35;6.88;;;3.92;;
20751;SDS011;10536;51.582;5.016;2022-10-16T19:39:35;4.85;;;3.10;;
20751;SDS011;10536;51.582;5.016;2022-10-16T19:44:35;12.43;;;3.80;;
20751;SDS011;10536;51.582;5.016;2022-10-16T19:49:36;7.28;;;4.15;;
20751;SDS011;10536;51.582;5.016;2022-10-16T19:54:36;4.82;;;3.50;;
20751;SDS011;10536;51.582;5.016;2022-10-16T19:59:38;11.27;;;4.05;;
20751;SDS011;10536;51.582;5.016;2022-10-16T20:04:38;4.00;;;3.47;;
20751;SDS011;10536;51.582;5.016;2022-10-16T20:09:39;12.57;;;3.80;;
20751;SDS011;10536;51.582;5.016;2022-10-16T20:14:40;5.45;;;3.60;;
20751;SDS011;10536;51.582;5.016;2022-10-16T20:19:40;8.32;;;4.00;;
20751;SDS011;10536;51.582;5.016;2022-10-16T20:24:41;6.32;;;4.20;;
20751;SDS011;10536;51.582;5.016;2022-10-16T20:29:41;6.28;;;4.13;;
20751;SDS011;10536;51.582;5.016;2022-10-16T20:34:45;8.83;;;4.73;;
20751;SDS011;10536;51.582;5.016;2022-10-16T20:39:48;5.93;;;4.18;;
20751;SDS011;10536;51.582;5.016;2022-10-16T20:44:48;9.27;;;4.78;;
20751;SDS011;10536;51.582;5.016;2022-10-16T20:49:49;7.27;;;5.23;;
20751;SDS011;10536;51.582;5.016;2022-10-16T20:54:52;7.30;;;5.20;;
20751;SDS011;10536;51.582;5.016;2022-10-16T20:59:52;8.73;;;5.30;;
20751;SDS011;10536;51.582;5.016;2022-10-16T21:04:54;9.05;;;4.72;;
20751;SDS011;10536;51.582;5.016;2022-10-16T21:09:55;7.87;;;6.30;;
20751;SDS011;10536;51.582;5.016;2022-10-16T21:14:55;7.10;;;5.70;;
20751;SDS011;10536;51.582;5.016;2022-10-16T21:19:56;8.90;;;6.40;;
20751;SDS011;10536;51.582;5.016;2022-10-16T21:24:56;15.32;;;7.00;;
20751;SDS011;10536;51.582;5.016;2022-10-16T21:29:57;9.02;;;6.57;;
20751;SDS011;10536;51.582;5.016;2022-10-16T21:34:57;9.30;;;7.20;;
20751;SDS011;10536;51.582;5.016;2022-10-16T21:39:58;12.60;;;7.80;;
20751;SDS011;10536;51.582;5.016;2022-10-16T21:44:58;10.73;;;8.07;;
20751;SDS011;10536;51.582;5.016;2022-10-16T21:49:59;14.98;;;8.63;;
20751;SDS011;10536;51.582;5.016;2022-10-16T21:54:59;11.65;;;8.38;;
20751;SDS011;10536;51.582;5.016;2022-10-16T22:00:00;14.73;;;9.03;;
20751;SDS011;10536;51.582;5.016;2022-10-16T22:05:00;14.30;;;8.70;;
20751;SDS011;10536;51.582;5.016;2022-10-16T22:10:01;11.95;;;9.45;;
20751;SDS011;10536;51.582;5.016;2022-10-16T22:15:02;15.27;;;9.63;;
20751;SDS011;10536;51.582;5.016;2022-10-16T22:20:02;18.30;;;10.45;;
20751;SDS011;10536;51.582;5.016;2022-10-16T22:25:03;16.05;;;10.05;;
20751;SDS011;10536;51.582;5.016;2022-10-16T22:30:04;17.33;;;10.48;;
20751;SDS011;10536;51.582;5.016;2022-10-16T22:35:05;16.30;;;11.48;;
20751;SDS011;10536;51.582;5.016;2022-10-16T22:40:06;19.02;;;12.07;;
20751;SDS011;10536;51.582;5.016;2022-10-16T22:45:07;20.40;;;11.70;;
20751;SDS011;10536;51.582;5.016;2022-10-16T22:50:08;18.10;;;10.80;;
20751;SDS011;10536;51.582;5.016;2022-10-16T22:55:08;16.47;;;11.30;;
20751;SDS011;10536;51.582;5.016;2022-10-16T23:00:10;13.30;;;11.83;;
20751;SDS011;10536;51.582;5.016;2022-10-16T23:10:14;13.75;;;10.85;;
20751;SDS011;10536;51.582;5.016;2022-10-16T23:15:15;14.93;;;12.15;;
20751;SDS011;10536;51.582;5.016;2022-10-16T23:20:16;20.83;;;12.15;;
20751;SDS011;10536;51.582;5.016;2022-10-16T23:25:17;13.25;;;10.77;;
20751;SDS011;10536;51.582;5.016;2022-10-16T23:30:17;12.80;;;11.50;;
20751;SDS011;10536;51.582;5.016;2022-10-16T23:35:18;19.15;;;11.80;;
20751;SDS011;10536;51.582;5.016;2022-10-16T23:40:18;13.55;;;12.02;;
20751;SDS011;10536;51.582;5.016;2022-10-16T23:45:19;18.03;;;12.20;;
20751;SDS011;10536;51.582;5.016;2022-10-16T23:50:19;15.85;;;12.63;;
20751;SDS011;10536;51.582;5.016;2022-10-16T23:55:19;15.33;;;11.50;;
